createdAt,value
2019-04-23T00:02:25.208Z,40.84
2019-04-23T00:04:57.340Z,40.80
2019-04-23T00:07:39.752Z,41.10
2019-04-23T00:10:06.311Z,40.90
2019-04-23T00:12:38.940Z,41.23
2019-04-23T00:20:03.400Z,41.41
2019-04-23T00:22:54.678Z,41.44
2019-04-23T00:28:10.282Z,41.52
2019-04-23T00:30:45.367Z,41.49
2019-04-23T00:33:12.578Z,41.67
2019-04-23T00:35:38.423Z,41.84
2019-04-23T00:38:12.189Z,41.84
2019-04-23T00:40:39.331Z,41.69
2019-04-23T00:43:15.548Z,41.67
2019-04-23T00:48:15.641Z,42.17
2019-04-23T00:50:54.244Z,42.04
2019-04-23T00:53:19.472Z,42.41
2019-04-23T00:55:47.621Z,42.55
2019-04-23T00:58:22.135Z,42.82
2019-04-23T01:00:45.944Z,42.45
2019-04-23T01:03:20.591Z,42.64
2019-04-23T01:05:50.356Z,42.53
2019-04-23T01:08:21.745Z,42.85
2019-04-23T01:10:56.451Z,43.10
2019-04-23T01:15:59.685Z,43.26
2019-04-23T01:20:54.257Z,43.49
2019-04-23T01:23:51.886Z,43.61
2019-04-23T01:26:40.546Z,43.86
2019-04-23T01:29:06.761Z,43.95
2019-04-23T01:31:43.009Z,44.11
2019-04-23T01:34:18.398Z,44.11
2019-04-23T01:36:35.970Z,44.14
2019-04-23T01:39:14.335Z,44.21
2019-04-23T01:41:47.551Z,44.35
2019-04-23T01:44:20.119Z,44.48
2019-04-23T01:46:49.359Z,44.62
2019-04-23T01:49:14.199Z,44.65
2019-04-23T01:51:49.774Z,44.83
2019-04-23T01:54:24.176Z,44.78
2019-04-23T01:56:40.355Z,44.87
2019-04-23T01:59:20.101Z,44.83
2019-04-23T02:01:50.393Z,45.42
2019-04-23T02:04:24.745Z,45.29
2019-04-23T02:06:51.337Z,45.29
2019-04-23T02:09:18.499Z,45.37
2019-04-23T02:11:53.350Z,45.52
2019-04-23T02:14:20.830Z,45.51
2019-04-23T02:16:49.959Z,45.66
2019-04-23T02:19:23.551Z,45.93
2019-04-23T02:21:57.562Z,46.08
2019-04-23T02:24:36.331Z,45.83
2019-04-23T02:27:08.479Z,46.27
2019-04-23T02:29:44.667Z,46.45
2019-04-23T02:34:52.451Z,46.37
2019-04-23T02:37:15.209Z,46.40
2019-04-23T02:39:49.495Z,46.50
2019-04-23T02:44:38.766Z,46.63
2019-04-23T02:52:21.779Z,47.40
2019-04-23T02:54:51.031Z,47.59
2019-04-23T02:57:16.250Z,47.77
2019-04-23T03:00:07.990Z,48.09
2019-04-23T03:02:37.242Z,48.22
2019-04-23T03:04:49.950Z,48.13
2019-04-23T03:15:00.874Z,49.62
2019-04-23T03:17:26.366Z,49.63
2019-04-23T03:20:07.946Z,49.91
2019-04-23T03:22:35.455Z,49.97
2019-04-23T03:25:12.926Z,50.22
2019-04-23T03:33:31.050Z,50.24
2019-04-23T03:37:42.343Z,50.50
2019-04-23T03:42:42.790Z,50.47
2019-04-23T03:47:37.408Z,50.75
2019-04-23T03:50:15.318Z,50.93
2019-04-23T03:52:38.937Z,50.88
2019-04-23T03:55:23.729Z,50.94
2019-04-23T03:57:40.215Z,51.11
2019-04-23T04:05:31.223Z,51.37
2019-04-23T04:10:16.194Z,51.80
2019-04-23T04:15:43.785Z,51.98
2019-04-23T04:18:03.934Z,51.90
2019-04-23T04:20:35.759Z,52.09
2019-04-23T04:23:03.715Z,52.19
2019-04-23T04:28:12.180Z,51.95
2019-04-23T04:30:27.290Z,52.13
2019-04-23T04:33:18.546Z,52.15
2019-04-23T04:35:24.862Z,51.83
2019-04-23T04:40:34.604Z,52.03
2019-04-23T04:43:06.742Z,52.06
2019-04-23T04:47:49.313Z,51.72
2019-04-23T04:50:25.248Z,52.14
2019-04-23T04:53:18.361Z,52.09
2019-04-23T04:55:26.565Z,52.03
2019-04-23T05:00:45.002Z,51.60
2019-04-23T05:10:43.307Z,51.39
2019-04-23T05:15:28.361Z,51.92
2019-04-23T05:18:23.905Z,51.83
2019-04-23T05:20:52.983Z,51.89
2019-04-23T05:23:29.339Z,51.38
2019-04-23T05:25:51.505Z,51.32
2019-04-23T05:28:44.577Z,51.34
2019-04-23T05:31:01.592Z,51.20
2019-04-23T05:33:23.544Z,51.04
2019-04-23T05:36:12.695Z,51.28
2019-04-23T05:38:35.933Z,51.15
2019-04-23T05:41:03.801Z,51.50
2019-04-23T05:43:26.116Z,51.14
2019-04-23T05:45:57.371Z,51.30
2019-04-23T05:48:26.095Z,51.04
2019-04-23T05:51:04.257Z,50.60
2019-04-23T05:53:33.032Z,50.69
2019-04-23T05:56:01.575Z,50.73
2019-04-23T05:58:40.073Z,50.73
2019-04-23T06:01:32.188Z,50.34
2019-04-23T06:03:48.915Z,49.91
2019-04-23T06:06:20.829Z,50.11
2019-04-23T06:08:53.341Z,49.98
2019-04-23T06:11:30.735Z,50.20
2019-04-23T06:14:02.072Z,49.88
2019-04-23T06:16:33.028Z,49.64
2019-04-23T06:19:02.996Z,49.82
2019-04-23T06:21:34.536Z,50.15
2019-04-23T06:24:03.029Z,49.28
2019-04-23T06:26:40.092Z,49.11
2019-04-23T06:29:10.284Z,49.19
2019-04-23T06:31:35.953Z,49.05
2019-04-23T06:34:06.254Z,48.64
2019-04-23T06:36:34.328Z,49.01
2019-04-23T06:38:57.124Z,48.61
2019-04-23T06:44:12.976Z,48.26
2019-04-23T06:46:43.442Z,47.70
2019-04-23T06:49:09.487Z,48.17
2019-04-23T06:51:44.894Z,47.84
2019-04-23T06:54:15.348Z,47.66
2019-04-23T06:56:57.338Z,47.93
2019-04-23T06:59:12.867Z,47.73
2019-04-23T07:01:51.584Z,48.09
2019-04-23T07:04:10.683Z,47.51
2019-04-23T07:06:46.747Z,47.97
2019-04-23T07:11:39.290Z,46.74
2019-04-23T07:14:10.070Z,46.47
2019-04-23T07:16:48.814Z,46.78
2019-04-23T07:19:30.526Z,47.04
2019-04-23T07:21:42.002Z,46.39
2019-04-23T07:24:28.755Z,46.96
2019-04-23T07:29:20.332Z,46.37
2019-04-23T07:34:20.381Z,46.76
2019-04-23T07:36:47.342Z,45.03
2019-04-23T07:39:33.346Z,45.37
2019-04-23T07:42:16.852Z,45.29
2019-04-23T07:44:54.510Z,44.58
2019-04-23T07:47:32.131Z,44.64
2019-04-23T07:50:12.885Z,44.16
2019-04-23T07:55:02.194Z,43.73
2019-04-23T07:57:35.047Z,43.18
2019-04-23T08:00:01.999Z,44.79
2019-04-23T08:02:29.976Z,42.58
2019-04-23T08:07:26.860Z,43.13
2019-04-23T08:10:02.408Z,43.14
2019-04-23T08:12:31.720Z,42.72
2019-04-23T08:15:09.485Z,43.83
2019-04-23T08:17:31.172Z,42.25
2019-04-23T08:22:37.253Z,41.11
2019-04-23T08:25:29.753Z,40.91
2019-04-23T08:27:55.515Z,41.52
2019-04-23T08:30:09.369Z,40.35
2019-04-23T08:32:38.882Z,40.61
2019-04-23T08:35:32.556Z,40.63
2019-04-23T08:40:15.034Z,40.94
2019-04-23T08:45:29.683Z,39.23
2019-04-23T08:50:46.541Z,39.21
2019-04-23T08:53:31.723Z,38.66
2019-04-23T08:58:19.155Z,37.84
2019-04-23T09:00:51.776Z,38.11
2019-04-23T09:03:28.480Z,38.36
2019-04-23T09:05:52.251Z,38.27
2019-04-23T09:08:20.352Z,38.23
2019-04-23T09:10:58.095Z,38.49
2019-04-23T09:18:23.331Z,39.44
2019-04-23T09:20:52.893Z,39.27
2019-04-23T09:23:26.371Z,39.32
2019-04-23T09:25:54.424Z,38.42
2019-04-23T09:28:38.651Z,37.89
2019-04-23T09:31:04.120Z,37.32
2019-04-23T09:36:22.399Z,36.91
2019-04-23T09:38:55.930Z,38.34
2019-04-23T09:41:21.928Z,37.66
2019-04-23T09:44:02.989Z,37.06
2019-04-23T09:46:29.637Z,36.97
2019-04-23T09:49:05.933Z,35.26
2019-04-23T09:51:36.707Z,36.68
2019-04-23T09:54:10.635Z,35.98
2019-04-23T09:56:41.633Z,35.94
2019-04-23T09:59:20.869Z,35.80
2019-04-23T10:01:32.855Z,34.86
2019-04-23T10:03:57.719Z,35.17
2019-04-23T10:06:19.037Z,34.71
2019-04-23T10:08:49.467Z,34.35
2019-04-23T10:11:13.843Z,33.48
2019-04-23T10:13:44.823Z,34.40
2019-04-23T10:16:17.325Z,34.38
2019-04-23T10:18:44.966Z,35.23
2019-04-23T10:21:15.329Z,35.60
2019-04-23T10:23:45.200Z,35.30
2019-04-23T10:26:14.484Z,34.86
2019-04-23T10:28:49.652Z,34.34
2019-04-23T10:31:18.936Z,33.50
2019-04-23T10:33:48.200Z,32.90
2019-04-23T10:36:21.545Z,33.21
2019-04-23T10:38:54.785Z,33.04
2019-04-23T10:41:20.107Z,32.77
2019-04-23T10:43:54.365Z,33.49
2019-04-23T10:46:58.271Z,31.73
2019-04-23T10:49:53.242Z,30.68
2019-04-23T10:54:45.624Z,31.92
2019-04-23T10:57:16.611Z,32.25
2019-04-23T11:02:34.734Z,31.18
2019-04-23T11:05:11.745Z,31.07
2019-04-23T11:20:25.527Z,30.02
2019-04-23T11:22:45.155Z,29.98
2019-04-23T11:25:28.085Z,30.80
2019-04-23T11:30:26.305Z,29.84
2019-04-23T11:32:57.309Z,30.96
2019-04-23T11:40:21.280Z,31.41
2019-04-23T11:42:57.897Z,31.97
2019-04-23T11:45:34.596Z,32.69
2019-04-23T11:50:39.574Z,30.94
2019-04-23T11:53:10.451Z,29.82
2019-04-23T11:58:08.188Z,29.80
2019-04-23T12:00:38.949Z,29.56
2019-04-23T12:02:56.361Z,30.67
2019-04-23T12:06:07.819Z,30.21
2019-04-23T12:08:33.482Z,31.46
2019-04-23T12:11:15.214Z,31.64
2019-04-23T12:13:38.315Z,32.69
2019-04-23T12:16:01.703Z,32.90
2019-04-23T12:21:28.370Z,33.08
2019-04-23T12:24:10.751Z,32.62
2019-04-23T12:31:31.447Z,31.88
2019-04-23T12:33:57.425Z,31.47
2019-04-23T12:36:44.115Z,31.31
2019-04-23T12:39:04.364Z,31.89
2019-04-23T12:41:32.921Z,31.90
2019-04-23T12:43:57.858Z,32.38
2019-04-23T12:46:41.586Z,32.40
2019-04-23T12:49:10.690Z,32.93
2019-04-23T12:54:07.750Z,33.62
2019-04-23T12:56:48.823Z,33.64
2019-04-23T12:59:01.822Z,33.95
2019-04-23T13:01:47.004Z,34.14
2019-04-23T13:03:59.703Z,34.56
2019-04-23T13:06:42.031Z,34.51
2019-04-23T13:09:19.549Z,34.43
2019-04-23T13:14:17.296Z,34.39
2019-04-23T13:16:44.674Z,33.80
2019-04-23T13:19:23.921Z,33.94
2019-04-23T13:24:35.991Z,34.23
2019-04-23T13:27:02.511Z,34.05
2019-04-23T13:29:42.984Z,34.21
2019-04-23T13:32:04.054Z,33.67
2019-04-23T13:34:41.490Z,34.26
2019-04-23T13:37:13.868Z,33.69
2019-04-23T13:39:40.396Z,33.98
2019-04-23T13:42:18.128Z,33.96
2019-04-23T13:44:42.437Z,33.48
2019-04-23T13:47:23.910Z,33.63
2019-04-23T13:49:47.488Z,33.53
2019-04-23T13:52:44.547Z,34.12
2019-04-23T13:54:59.610Z,34.04
2019-04-23T13:59:45.193Z,34.13
2019-04-23T14:02:23.352Z,33.55
2019-04-23T14:07:34.653Z,33.90
2019-04-23T14:12:31.899Z,33.76
2019-04-23T14:15:04.035Z,33.78
2019-04-23T14:18:02.919Z,34.22
2019-04-23T14:20:15.308Z,34.02
2019-04-23T14:25:10.191Z,34.78
2019-04-23T14:27:51.968Z,34.16
2019-04-23T14:30:21.912Z,34.03
2019-04-23T14:32:46.887Z,33.92
2019-04-23T14:38:07.322Z,34.40
2019-04-23T14:40:34.343Z,34.25
2019-04-23T14:42:56.809Z,34.42
2019-04-23T14:47:59.129Z,35.07
2019-04-23T14:50:32.280Z,35.06
2019-04-23T14:53:10.602Z,35.42
2019-04-23T14:55:53.006Z,35.66
2019-04-23T14:58:10.569Z,35.58
2019-04-23T15:00:49.753Z,35.64
2019-04-23T15:05:52.792Z,37.53
2019-04-23T15:08:16.849Z,38.63
2019-04-23T15:11:03.727Z,39.07
2019-04-23T15:13:16.903Z,39.52
2019-04-23T15:15:58.009Z,40.20
2019-04-23T15:18:37.833Z,40.81
2019-04-23T15:24:00.460Z,42.52
2019-04-23T15:28:34.042Z,43.44
2019-04-23T15:31:26.812Z,43.75
2019-04-23T15:34:03.112Z,43.93
2019-04-23T15:36:41.338Z,44.24
2019-04-23T15:39:04.109Z,44.36
2019-04-23T15:41:32.036Z,44.20
2019-04-23T15:44:03.090Z,44.11
2019-04-23T15:46:35.466Z,44.06
2019-04-23T15:49:07.287Z,44.62
2019-04-23T15:54:02.752Z,44.38
2019-04-23T15:59:10.808Z,44.61
2019-04-23T16:01:39.490Z,44.28
2019-04-23T16:03:38.268Z,43.05
2019-04-23T16:06:10.334Z,42.69
2019-04-23T16:12:25.534Z,41.44
2019-04-23T16:16:51.514Z,40.40
2019-04-23T16:24:19.505Z,39.10
2019-04-23T16:31:54.797Z,39.01
2019-04-23T16:34:29.211Z,39.30
2019-04-23T16:39:31.396Z,38.91
2019-04-23T16:42:18.861Z,38.67
2019-04-23T16:44:46.493Z,39.04
2019-04-23T16:47:14.529Z,38.64
2019-04-23T16:49:42.347Z,38.68
2019-04-23T16:52:12.559Z,39.04
2019-04-23T16:54:50.557Z,38.98
2019-04-23T16:59:46.828Z,38.65
2019-04-23T17:02:16.063Z,38.52
2019-04-23T17:04:45.971Z,39.14
2019-04-23T17:07:06.888Z,38.96
2019-04-23T17:09:57.571Z,38.86
2019-04-23T17:12:15.039Z,38.53
2019-04-23T17:14:49.738Z,38.78
2019-04-23T17:17:15.622Z,38.82
2019-04-23T17:19:54.063Z,38.56
2019-04-23T17:22:33.909Z,38.69
2019-04-23T17:24:54.016Z,39.05
2019-04-23T17:27:22.514Z,38.86
2019-04-23T17:29:48.928Z,39.27
2019-04-23T17:32:15.432Z,39.13
2019-04-23T17:35:04.843Z,39.31
2019-04-23T17:37:32.507Z,39.46
2019-04-23T17:51:08.577Z,39.82
2019-04-23T17:53:22.336Z,39.96
2019-04-23T17:55:57.103Z,40.30
2019-04-23T17:58:25.414Z,40.16
2019-04-23T18:01:04.023Z,40.54
2019-04-23T18:03:28.186Z,40.76
2019-04-23T18:06:05.673Z,40.71
2019-04-23T18:11:05.957Z,40.98
2019-04-23T18:13:28.289Z,40.64
2019-04-23T18:16:04.135Z,40.82
2019-04-23T18:24:00.282Z,41.71
2019-04-23T18:26:36.013Z,42.44
2019-04-23T18:29:15.669Z,42.52
2019-04-23T18:31:44.797Z,42.20
2019-04-23T18:34:14.674Z,43.16
2019-04-23T18:36:38.927Z,42.87
2019-04-23T18:39:19.817Z,43.65
2019-04-23T18:41:54.895Z,43.51
2019-04-23T18:44:21.747Z,44.13
2019-04-23T18:46:52.302Z,45.10
2019-04-23T18:49:28.079Z,45.36
2019-04-23T18:51:58.897Z,46.48
2019-04-23T18:54:22.757Z,47.20
2019-04-23T18:57:09.969Z,47.82
2019-04-23T18:59:40.769Z,46.75
2019-04-23T19:02:00.743Z,48.04
2019-04-23T19:04:45.249Z,48.67
2019-04-23T19:07:27.312Z,48.01
2019-04-23T19:10:19.013Z,47.38
2019-04-23T19:12:48.138Z,47.48
2019-04-23T19:15:13.958Z,47.65
2019-04-23T19:20:17.959Z,48.58
2019-04-23T19:22:51.850Z,49.02
2019-04-23T19:25:14.498Z,49.16
2019-04-23T19:27:45.885Z,49.24
2019-04-23T19:30:15.847Z,49.67
2019-04-23T19:32:50.864Z,49.82
2019-04-23T19:35:33.567Z,50.64
2019-04-23T19:38:01.463Z,50.27
2019-04-23T19:40:24.633Z,50.64
2019-04-23T19:42:55.390Z,50.60
2019-04-23T19:45:26.046Z,51.48
2019-04-23T19:48:13.572Z,50.95
2019-04-23T19:50:28.405Z,50.99
2019-04-23T19:55:26.239Z,52.23
2019-04-23T20:00:31.183Z,53.25
2019-04-23T20:03:13.660Z,53.23
2019-04-23T20:05:23.983Z,52.97
2019-04-23T20:08:02.316Z,53.31
2019-04-23T20:10:30.082Z,53.34
2019-04-23T20:12:51.874Z,54.70
2019-04-23T20:15:40.145Z,55.05
2019-04-23T20:17:54.121Z,54.54
2019-04-23T20:20:35.369Z,55.63
2019-04-23T20:22:55.632Z,55.86
2019-04-23T20:26:03.264Z,56.41
2019-04-23T20:28:14.879Z,56.10
2019-04-23T20:41:05.755Z,56.66
2019-04-23T20:43:40.417Z,57.62
2019-04-23T20:46:10.926Z,57.17
2019-04-23T20:48:46.942Z,56.92
2019-04-23T20:51:00.019Z,57.62
2019-04-23T20:53:40.359Z,57.16
2019-04-23T20:56:07.245Z,57.90
2019-04-23T20:58:48.147Z,57.42
2019-04-23T21:06:21.570Z,58.68
2019-04-23T21:09:17.235Z,58.51
2019-04-23T21:11:13.881Z,59.35
2019-04-23T21:16:27.279Z,60.21
2019-04-23T21:18:48.005Z,60.53
2019-04-23T21:24:20.430Z,61.27
2019-04-23T21:26:16.741Z,61.92
2019-04-23T21:28:47.589Z,61.99
2019-04-23T21:31:27.468Z,61.95
2019-04-23T21:34:12.507Z,62.54
2019-04-23T21:36:43.406Z,62.87
2019-04-23T21:44:21.210Z,62.58
2019-04-23T21:46:51.121Z,62.43
2019-04-23T21:51:49.286Z,63.00
2019-04-23T21:54:13.288Z,62.79
2019-04-23T21:56:55.427Z,63.05
2019-04-23T21:59:10.172Z,62.68
2019-04-23T22:02:12.776Z,63.07
2019-04-23T22:04:33.568Z,62.78
2019-04-23T22:09:27.125Z,61.27
2019-04-23T22:14:27.120Z,61.13
2019-04-23T22:17:02.901Z,61.12
2019-04-23T22:19:52.662Z,60.97
2019-04-23T22:21:55.597Z,60.10
2019-04-23T22:24:25.559Z,60.31
2019-04-23T22:26:57.646Z,59.77
2019-04-23T22:29:33.460Z,59.41
2019-04-23T22:31:53.833Z,59.66
2019-04-23T22:34:43.355Z,59.12
2019-04-23T22:37:11.083Z,58.92
2019-04-23T22:39:39.936Z,58.49
2019-04-23T22:42:15.128Z,57.95
2019-04-23T22:44:50.703Z,57.66
2019-04-23T22:47:14.097Z,57.39
2019-04-23T22:49:51.328Z,57.10
2019-04-23T22:52:31.445Z,57.44
2019-04-23T22:54:49.433Z,57.18
2019-04-23T22:57:11.569Z,57.10
2019-04-23T23:02:26.937Z,57.00
2019-04-23T23:05:10.349Z,56.76
2019-04-23T23:07:28.868Z,56.50
2019-04-23T23:10:00.802Z,56.28
2019-04-23T23:12:36.643Z,56.41
2019-04-23T23:15:00.979Z,56.42
2019-04-23T23:17:30.707Z,56.71
2019-04-23T23:20:08.511Z,56.38
2019-04-23T23:22:27.505Z,55.99
2019-04-23T23:25:11.411Z,56.13
2019-04-23T23:27:45.476Z,55.88
2019-04-23T23:32:40.863Z,55.60
2019-04-23T23:35:14.699Z,55.57
2019-04-23T23:37:35.555Z,55.59
2019-04-23T23:40:15.221Z,55.59
2019-04-23T23:42:45.914Z,55.43
2019-04-23T23:47:38.865Z,55.15
2019-04-23T23:50:31.785Z,55.23
2019-04-23T23:52:48.798Z,55.10
2019-04-23T23:55:13.735Z,54.74
2019-04-23T23:57:41.277Z,54.84
